createdAt,value
2019-03-10T00:01:00.001Z,13.62
2019-03-10T00:05:52.450Z,14.63
2019-03-10T00:10:45.165Z,13.35
2019-03-10T00:15:37.502Z,8.68
2019-03-10T00:20:29.874Z,10.23
2019-03-10T00:25:22.767Z,10.93
2019-03-10T00:30:16.989Z,9.70
2019-03-10T00:35:09.889Z,12.43
2019-03-10T00:40:26.430Z,12.65
2019-03-10T00:45:38.933Z,8.53
2019-03-10T00:50:59.369Z,11.45
2019-03-10T00:55:52.121Z,13.32
2019-03-10T01:00:44.821Z,9.80
2019-03-10T01:05:37.585Z,7.90
2019-03-10T01:10:30.219Z,10.32
2019-03-10T01:15:22.620Z,11.93
2019-03-10T01:20:18.289Z,12.03
2019-03-10T01:25:12.603Z,10.18
2019-03-10T01:30:07.886Z,11.83
2019-03-10T01:35:12.407Z,16.45
2019-03-10T01:40:06.616Z,10.50
2019-03-10T01:44:58.829Z,11.28
2019-03-10T01:49:51.214Z,11.03
2019-03-10T01:54:43.493Z,11.38
2019-03-10T01:59:36.069Z,7.75
2019-03-10T02:04:28.960Z,11.38
2019-03-10T02:09:21.401Z,10.00
2019-03-10T02:14:14.074Z,10.28
2019-03-10T02:19:06.584Z,7.35
2019-03-10T02:23:59.317Z,8.55
2019-03-10T02:28:51.505Z,8.90
2019-03-10T02:33:44.030Z,7.80
2019-03-10T02:38:36.586Z,8.10
2019-03-10T02:43:29.011Z,6.95
2019-03-10T02:48:21.617Z,8.33
2019-03-10T02:53:14.272Z,10.48
2019-03-10T02:58:07.007Z,11.78
2019-03-10T03:02:59.663Z,8.78
2019-03-10T03:07:52.253Z,10.55
2019-03-10T03:12:44.731Z,10.35
2019-03-10T03:17:37.313Z,9.63
2019-03-10T03:22:29.813Z,8.50
2019-03-10T03:27:22.408Z,6.80
2019-03-10T03:32:14.918Z,5.55
2019-03-10T03:37:08.059Z,6.22
2019-03-10T03:42:00.456Z,4.85
2019-03-10T03:46:53.041Z,5.17
2019-03-10T03:51:45.720Z,4.33
2019-03-10T03:56:38.381Z,4.37
2019-03-10T04:01:35.244Z,3.37
2019-03-10T04:06:27.473Z,4.85
2019-03-10T04:11:20.326Z,3.20
2019-03-10T04:16:13.096Z,2.90
2019-03-10T04:21:05.616Z,3.00
2019-03-10T04:25:58.358Z,3.58
2019-03-10T04:30:50.841Z,3.20
2019-03-10T04:35:43.269Z,5.28
2019-03-10T04:40:35.864Z,4.62
2019-03-10T04:45:28.522Z,2.47
2019-03-10T04:50:21.209Z,3.15
2019-03-10T04:55:27.031Z,2.02
2019-03-10T05:00:19.561Z,4.20
2019-03-10T05:05:12.501Z,3.65
2019-03-10T05:10:05.780Z,3.30
2019-03-10T05:14:58.161Z,4.25
2019-03-10T05:19:50.538Z,3.70
2019-03-10T05:24:43.142Z,3.47
2019-03-10T05:29:35.689Z,3.30
2019-03-10T05:34:28.205Z,3.00
2019-03-10T05:39:21.429Z,2.30
2019-03-10T05:44:13.745Z,1.60
2019-03-10T05:49:06.254Z,1.93
2019-03-10T05:53:58.673Z,1.50
2019-03-10T05:58:51.514Z,1.72
2019-03-10T06:03:44.078Z,3.25
2019-03-10T06:08:36.534Z,1.10
2019-03-10T06:13:29.036Z,0.70
2019-03-10T06:18:23.011Z,0.80
2019-03-10T06:23:15.422Z,0.80
2019-03-10T06:28:07.834Z,0.80
2019-03-10T06:33:00.574Z,0.70
2019-03-10T06:37:52.985Z,1.45
2019-03-10T06:42:45.387Z,1.25
2019-03-10T06:47:37.921Z,1.07
2019-03-10T06:52:30.870Z,1.60
2019-03-10T06:57:23.200Z,2.50
2019-03-10T07:02:15.473Z,0.78
2019-03-10T07:07:07.909Z,1.20
2019-03-10T07:12:00.687Z,0.93
2019-03-10T07:16:53.163Z,0.70
2019-03-10T07:21:45.929Z,0.50
2019-03-10T07:26:38.113Z,0.70
2019-03-10T07:31:37.979Z,0.60
2019-03-10T07:36:48.665Z,0.70
2019-03-10T07:41:45.745Z,1.27
2019-03-10T07:46:42.486Z,0.95
2019-03-10T07:51:45.413Z,0.72
2019-03-10T07:56:39.548Z,0.57
2019-03-10T08:01:33.825Z,0.50
2019-03-10T08:06:37.110Z,0.50
2019-03-10T08:11:44.365Z,0.50
2019-03-10T08:16:38.896Z,0.62
2019-03-10T08:21:33.117Z,0.50
2019-03-10T08:26:27.352Z,2.00
2019-03-10T08:31:33.553Z,1.17
2019-03-10T08:36:33.776Z,1.00
2019-03-10T08:41:28.095Z,0.95
2019-03-10T08:46:31.448Z,1.10
2019-03-10T08:51:31.753Z,0.72
2019-03-10T08:56:25.695Z,0.93
2019-03-10T09:01:22.268Z,0.93
2019-03-10T09:06:16.234Z,1.30
2019-03-10T09:11:25.588Z,1.15
2019-03-10T09:16:25.850Z,0.70
2019-03-10T09:21:22.889Z,1.50
2019-03-10T09:26:26.008Z,0.98
2019-03-10T09:31:26.041Z,1.20
2019-03-10T09:36:20.155Z,0.72
2019-03-10T09:41:14.170Z,1.22
2019-03-10T09:46:13.979Z,0.93
2019-03-10T09:51:08.249Z,1.70
2019-03-10T09:56:17.355Z,1.10
2019-03-10T10:01:17.689Z,1.20
2019-03-10T10:06:17.721Z,1.25
2019-03-10T10:11:14.499Z,1.20
2019-03-10T10:16:25.121Z,1.30
2019-03-10T10:21:31.322Z,1.67
2019-03-10T10:26:40.082Z,3.35
2019-03-10T10:31:46.185Z,2.95
2019-03-10T10:36:43.859Z,3.35
2019-03-10T10:41:40.541Z,1.37
2019-03-10T10:46:43.048Z,1.45
2019-03-10T10:51:53.387Z,1.72
2019-03-10T10:56:56.787Z,1.75
2019-03-10T11:01:54.005Z,2.02
2019-03-10T11:06:50.379Z,2.45
2019-03-10T11:11:47.550Z,2.37
2019-03-10T11:16:41.637Z,3.17
2019-03-10T11:26:38.048Z,2.35
2019-03-10T11:31:48.537Z,2.85
2019-03-10T11:36:43.045Z,5.00
2019-03-10T11:41:37.284Z,3.90
2019-03-10T11:46:46.821Z,5.70
2019-03-10T11:51:56.223Z,5.55
2019-03-10T11:57:08.163Z,4.92
2019-03-10T12:02:02.257Z,4.80
2019-03-10T12:06:58.735Z,5.22
2019-03-10T12:11:51.177Z,4.35
2019-03-10T12:16:43.539Z,5.37
2019-03-10T12:21:35.889Z,5.80
2019-03-10T12:26:28.431Z,5.70
2019-03-10T12:31:21.017Z,6.03
2019-03-10T12:36:14.035Z,5.97
2019-03-10T12:41:06.317Z,6.22
2019-03-10T12:45:58.841Z,7.45
2019-03-10T12:50:51.527Z,7.15
2019-03-10T12:55:44.084Z,7.92
2019-03-10T13:00:36.594Z,7.60
2019-03-10T13:05:29.305Z,7.35
2019-03-10T13:10:21.669Z,6.58
2019-03-10T13:15:14.520Z,7.97
2019-03-10T13:20:11.293Z,8.63
2019-03-10T13:25:05.200Z,5.00
2019-03-10T13:29:57.838Z,7.92
2019-03-10T13:34:50.125Z,8.00
2019-03-10T13:39:42.616Z,4.83
2019-03-10T13:44:35.094Z,7.78
2019-03-10T13:49:29.071Z,6.67
2019-03-10T13:54:21.507Z,9.73
2019-03-10T13:59:14.188Z,7.15
2019-03-10T14:04:06.696Z,5.95
2019-03-10T14:08:59.260Z,9.03
2019-03-10T14:13:51.880Z,6.17
2019-03-10T14:18:44.358Z,6.85
2019-03-10T14:23:36.961Z,8.43
2019-03-10T14:28:29.642Z,9.45
2019-03-10T14:33:22.221Z,4.78
2019-03-10T14:38:14.730Z,5.75
2019-03-10T14:43:07.369Z,9.93
2019-03-10T14:47:59.774Z,5.03
2019-03-10T14:52:52.261Z,6.70
2019-03-10T14:57:44.641Z,5.10
2019-03-10T15:02:37.103Z,7.87
2019-03-10T15:07:29.691Z,9.38
2019-03-10T15:12:22.366Z,6.40
2019-03-10T15:17:15.111Z,5.87
2019-03-10T15:22:07.366Z,7.75
2019-03-10T15:26:59.923Z,8.95
2019-03-10T15:31:52.556Z,8.50
2019-03-10T15:36:45.441Z,7.75
2019-03-10T15:41:37.802Z,8.05
2019-03-10T15:46:30.168Z,5.87
2019-03-10T15:51:22.643Z,7.03
2019-03-10T15:56:14.965Z,6.60
2019-03-10T16:01:07.378Z,6.47
2019-03-10T16:06:00.045Z,6.25
2019-03-10T16:10:52.999Z,6.83
2019-03-10T16:15:45.091Z,10.30
2019-03-10T16:20:37.459Z,6.58
2019-03-10T16:25:29.849Z,7.42
2019-03-10T16:30:23.880Z,6.12
2019-03-10T16:35:16.543Z,5.62
2019-03-10T16:40:12.065Z,5.70
2019-03-10T16:45:05.498Z,7.33
2019-03-10T16:49:58.235Z,8.10
2019-03-10T16:54:50.625Z,5.53
2019-03-10T16:59:43.173Z,5.28
2019-03-10T17:04:35.822Z,5.45
2019-03-10T17:09:28.318Z,5.17
2019-03-10T17:14:21.103Z,4.93
2019-03-10T17:19:13.600Z,4.33
2019-03-10T17:24:06.058Z,3.70
2019-03-10T17:28:58.867Z,6.50
2019-03-10T17:33:51.477Z,7.57
2019-03-10T17:38:43.529Z,5.63
2019-03-10T17:43:36.062Z,4.87
2019-03-10T17:48:28.711Z,5.00
2019-03-10T17:53:21.027Z,2.30
2019-03-10T17:58:13.138Z,3.77
2019-03-10T18:03:05.713Z,12.90
2019-03-10T18:07:58.435Z,6.43
2019-03-10T18:12:50.865Z,7.53
2019-03-10T18:17:43.736Z,8.33
2019-03-10T18:22:36.580Z,9.57
2019-03-10T18:27:29.089Z,6.90
2019-03-10T18:32:21.661Z,8.30
2019-03-10T18:37:14.461Z,13.87
2019-03-10T18:42:06.898Z,9.07
2019-03-10T18:46:59.525Z,12.30
2019-03-10T18:51:52.088Z,12.13
2019-03-10T18:56:44.794Z,15.10
2019-03-10T19:01:37.419Z,9.33
2019-03-10T19:06:30.025Z,11.60
2019-03-10T19:11:22.684Z,14.07
2019-03-10T19:16:15.496Z,7.30
2019-03-10T19:21:07.855Z,14.97
2019-03-10T19:26:00.345Z,14.20
2019-03-10T19:30:53.905Z,11.18
2019-03-10T19:35:46.423Z,10.00
2019-03-10T19:40:38.955Z,11.37
2019-03-10T19:45:31.333Z,9.93
2019-03-10T19:50:27.399Z,11.13
2019-03-10T19:55:20.313Z,9.63
2019-03-10T20:00:22.282Z,10.17
2019-03-10T20:05:15.327Z,13.30
2019-03-10T20:10:10.812Z,11.27
2019-03-10T20:15:03.165Z,9.73
2019-03-10T20:19:55.800Z,11.63
2019-03-10T20:24:48.277Z,14.30
2019-03-10T20:29:40.989Z,15.23
2019-03-10T20:34:33.655Z,10.20
2019-03-10T20:39:26.010Z,15.60
2019-03-10T20:44:18.531Z,8.50
2019-03-10T20:49:11.014Z,9.80
2019-03-10T20:54:03.641Z,12.03
2019-03-10T20:58:55.801Z,10.37
2019-03-10T21:03:48.581Z,11.87
2019-03-10T21:08:40.957Z,13.07
2019-03-10T21:13:33.473Z,9.77
2019-03-10T21:18:26.334Z,10.23
2019-03-10T21:23:18.874Z,13.33
2019-03-10T21:28:11.369Z,10.27
2019-03-10T21:33:03.900Z,12.23
2019-03-10T21:37:56.553Z,9.47
2019-03-10T21:42:48.726Z,11.23
2019-03-10T21:47:41.121Z,11.63
2019-03-10T21:52:33.809Z,13.07
2019-03-10T21:57:26.258Z,13.53
2019-03-10T22:02:18.746Z,10.13
2019-03-10T22:07:11.270Z,12.87
2019-03-10T22:12:04.157Z,12.50
2019-03-10T22:16:57.870Z,11.97
2019-03-10T22:21:50.581Z,12.10
2019-03-10T22:26:42.813Z,15.13
2019-03-10T22:31:35.220Z,11.07
2019-03-10T22:36:27.908Z,12.83
2019-03-10T22:41:20.772Z,12.87
2019-03-10T22:46:13.123Z,13.57
2019-03-10T22:51:05.354Z,12.60
2019-03-10T22:55:57.836Z,13.73
2019-03-10T23:00:51.770Z,12.17
2019-03-10T23:05:44.253Z,15.93
2019-03-10T23:10:36.945Z,17.30
2019-03-10T23:15:29.407Z,19.73
2019-03-10T23:20:21.894Z,27.00
2019-03-10T23:25:14.552Z,19.97
2019-03-10T23:30:19.770Z,16.63
2019-03-10T23:35:12.481Z,16.43
2019-03-10T23:40:13.581Z,19.30
2019-03-10T23:45:11.245Z,21.80
2019-03-10T23:50:05.861Z,19.67
2019-03-10T23:54:58.124Z,15.67
2019-03-10T23:59:50.771Z,17.23
